Weather at Alamogordo White Sands Regional Airport

Public forecast

Using degrees Fahrenheit for public forecast. Weather courtesy of forecast.io.

Current aviation weather report (METAR) for Alamogordo White Sands Regional Airport

Retrieved 2022/01/22 21:35 UTC (7 minutes ago):

KALM 222135Z AUTO 32006G11KT 10SM CLR 12/M05 A3015 RMK AO2

Closest aviation forecast (TAF) to Alamogordo White Sands Regional Airport

Forecast is more than 12 hours old.

Closest forecast is Holloman Air Force Base, 5.9 nm (10.9 km) W. Retrieved 2022-01-22 01:09 UTC (21 hours ago):

TAF KHMN 220100Z 2201/2307 VRB06KT 9999 FEW090 QNH3005INS TX13/2222Z TNM03/2212Z